Time;durP1;ratioP1;P1;durP2;ratioP2;P2;SDS_P1;SDS_P2;PMS_P1;PMS_P2;Temp;Humidity;BMP_temperature;BMP_pressure;BME280_temperature;BME280_humidity;BME280_pressure;Samples;Min_cycle;Max_cycle;Signal;HPM_P1;HPM_P2
2022/03/25 00:00:14;0.00;0.00;0.62;0.00;0.00;0.62;2.67;2.20;;;27.70;20.20;;;;;;2228263;62;20445;-49
2022/03/25 00:02:58;0.00;0.00;0.62;0.00;0.00;0.62;2.40;1.87;;;27.70;20.20;;;;;;2227257;62;20503;-52
2022/03/25 00:05:43;0.00;0.00;0.62;0.00;0.00;0.62;2.63;2.13;;;27.70;20.30;;;;;;2228062;62;20432;-49
2022/03/25 00:08:27;0.00;0.00;0.62;0.00;0.00;0.62;2.33;1.97;;;27.70;20.30;;;;;;2227819;62;20456;-51
2022/03/25 00:11:12;0.00;0.00;0.62;0.00;0.00;0.62;2.33;2.10;;;27.70;20.30;;;;;;2227880;62;20420;-48
2022/03/25 00:13:57;0.00;0.00;0.62;0.00;0.00;0.62;2.30;1.70;;;27.70;20.30;;;;;;2228013;62;20481;-53
2022/03/25 00:16:43;0.00;0.00;0.62;0.00;0.00;0.62;3.27;2.20;;;27.70;20.30;;;;;;2227714;62;20822;-60
2022/03/25 00:19:28;0.00;0.00;0.62;0.00;0.00;0.62;2.50;1.80;;;27.70;20.30;;;;;;2228660;62;20380;-61
2022/03/25 00:22:13;0.00;0.00;0.62;0.00;0.00;0.62;2.30;2.00;;;27.60;20.30;;;;;;2228986;62;20372;-58
2022/03/25 00:24:57;0.00;0.00;0.62;0.00;0.00;0.62;2.77;2.20;;;27.60;20.30;;;;;;2227218;62;20396;-58
2022/03/25 00:27:42;0.00;0.00;0.62;0.00;0.00;0.62;2.40;2.20;;;27.60;20.40;;;;;;2225186;62;20392;-48
2022/03/25 00:30:28;0.00;0.00;0.62;0.00;0.00;0.62;2.80;2.43;;;27.60;20.40;;;;;;2227920;62;20368;-52
2022/03/25 00:33:14;0.00;0.00;0.62;0.00;0.00;0.62;2.07;1.67;;;27.60;20.40;;;;;;2227653;62;20436;-55
2022/03/25 00:36:00;0.00;0.00;0.62;0.00;0.00;0.62;2.50;2.03;;;27.60;20.40;;;;;;2227655;62;20368;-50
2022/03/25 00:38:49;0.00;0.00;0.62;0.00;0.00;0.62;3.00;2.07;;;27.60;20.50;;;;;;2225526;62;20488;-59
2022/03/25 00:41:34;0.00;0.00;0.62;0.00;0.00;0.62;2.50;2.30;;;27.60;20.50;;;;;;2227028;62;20408;-54
2022/03/25 00:44:21;0.00;0.00;0.62;0.00;0.00;0.62;2.23;2.00;;;27.60;20.50;;;;;;2228565;62;20396;-54
2022/03/25 00:47:05;0.00;0.00;0.62;0.00;0.00;0.62;2.40;1.90;;;27.60;20.50;;;;;;2228027;62;20368;-53
2022/03/25 00:49:52;0.00;0.00;0.62;0.00;0.00;0.62;2.63;2.07;;;27.50;20.40;;;;;;2228039;62;20896;-52
2022/03/25 00:52:37;0.00;0.00;0.62;0.00;0.00;0.62;2.63;2.00;;;27.60;20.50;;;;;;2228607;62;20829;-53
2022/03/25 00:55:22;0.00;0.00;0.62;0.00;0.00;0.62;2.70;2.00;;;27.60;20.50;;;;;;2227836;62;20380;-53
2022/03/25 00:58:08;0.00;0.00;0.62;0.00;0.00;0.62;3.23;2.30;;;27.50;20.40;;;;;;2228336;62;20395;-51
2022/03/25 01:00:52;0.00;0.00;0.62;0.00;0.00;0.62;2.90;2.63;;;27.50;20.40;;;;;;2229067;62;20432;-51
2022/03/25 01:03:37;0.00;0.00;0.62;0.00;0.00;0.62;3.83;3.03;;;27.50;20.40;;;;;;2228545;62;20441;-55
2022/03/25 01:06:24;0.00;0.00;0.62;0.00;0.00;0.62;4.10;3.70;;;27.50;20.20;;;;;;2228836;62;20404;-54
2022/03/25 01:09:09;0.00;0.00;0.62;0.00;0.00;0.62;5.67;3.70;;;27.50;20.10;;;;;;2225277;62;20395;-56
2022/03/25 01:11:54;0.00;0.00;0.62;0.00;0.00;0.62;5.33;4.73;;;27.50;20.00;;;;;;2228383;62;20456;-57
2022/03/25 01:14:39;0.00;0.00;0.62;0.00;0.00;0.62;7.33;6.13;;;27.50;19.90;;;;;;2228876;62;20401;-54
2022/03/25 01:17:24;0.00;0.00;0.62;0.00;0.00;0.62;7.07;6.37;;;27.40;19.70;;;;;;2228608;62;20388;-55
2022/03/25 01:20:10;0.00;0.00;0.62;0.00;0.00;0.62;6.87;6.17;;;27.40;19.60;;;;;;2228860;62;20429;-52
2022/03/25 01:22:57;0.00;0.00;0.62;0.00;0.00;0.62;7.73;6.63;;;27.40;19.50;;;;;;2229183;62;20420;-53
2022/03/25 01:25:42;0.00;0.00;0.62;0.00;0.00;0.62;7.37;6.57;;;27.40;19.40;;;;;;2228759;62;20435;-52
2022/03/25 01:28:32;0.00;0.00;0.62;0.00;0.00;0.62;13.13;7.80;;;27.40;19.30;;;;;;2228773;62;20472;-53
2022/03/25 01:31:17;0.00;0.00;0.62;0.00;0.00;0.62;8.70;7.80;;;27.40;19.20;;;;;;2225879;62;20376;-55
2022/03/25 01:34:02;0.00;0.00;0.62;0.00;0.00;0.62;8.50;7.37;;;27.30;19.10;;;;;;2228531;62;20433;-54
2022/03/25 01:36:47;0.00;0.00;0.62;0.00;0.00;0.62;8.60;7.80;;;27.30;19.00;;;;;;2228783;62;20697;-55
2022/03/25 01:39:33;0.00;0.00;0.62;0.00;0.00;0.62;8.90;7.97;;;27.30;19.50;;;;;;2228543;62;20391;-55
2022/03/25 01:42:29;0.00;0.00;0.62;0.00;0.00;0.62;10.70;8.27;;;27.20;18.90;;;;;;2228606;62;20376;-55
2022/03/25 01:45:26;0.00;0.00;0.62;0.00;0.00;0.62;9.00;8.10;;;27.20;18.80;;;;;;2229304;62;20453;-52
2022/03/25 01:48:13;0.00;0.00;0.62;0.00;0.00;0.62;9.90;8.87;;;27.20;18.80;;;;;;2228833;62;20388;-52
2022/03/25 01:51:01;0.00;0.00;0.62;0.00;0.00;0.62;9.73;8.40;;;27.10;18.70;;;;;;2229797;62;20371;-51
2022/03/25 01:53:47;0.00;0.00;0.62;0.00;0.00;0.62;8.90;8.10;;;27.10;18.70;;;;;;2228642;62;20886;-50
2022/03/25 01:56:34;0.00;0.00;0.62;0.00;0.00;0.62;10.07;9.07;;;27.10;18.70;;;;;;2229038;62;20784;-52
2022/03/25 01:59:20;0.00;0.00;0.62;0.00;0.00;0.62;9.60;8.70;;;27.00;18.60;;;;;;2226110;62;20395;-53
2022/03/25 02:02:07;0.00;0.00;0.62;0.00;0.00;0.62;9.37;8.43;;;27.00;18.60;;;;;;2228489;62;20420;-54
2022/03/25 02:04:52;0.00;0.00;0.62;0.00;0.00;0.62;10.33;9.23;;;27.00;18.60;;;;;;2228876;62;20912;-53
2022/03/25 02:07:37;0.00;0.00;0.62;0.00;0.00;0.62;11.80;9.33;;;26.90;18.50;;;;;;2229033;62;20403;-51
2022/03/25 02:10:22;0.00;0.00;0.62;0.00;0.00;0.62;10.70;9.53;;;26.90;18.50;;;;;;2229039;62;20938;-50
2022/03/25 02:13:11;0.00;0.00;0.62;0.00;0.00;0.62;10.67;9.57;;;26.80;18.50;;;;;;2229615;62;20421;-51
2022/03/25 02:15:55;0.00;0.00;0.62;0.00;0.00;0.62;11.43;10.40;;;26.80;18.50;;;;;;2225469;62;20392;-49
2022/03/25 02:18:40;0.00;0.00;0.62;0.00;0.00;0.62;10.77;9.47;;;26.80;18.40;;;;;;2225323;62;20411;-54
2022/03/25 02:21:29;0.00;0.00;0.62;0.00;0.00;0.62;10.53;9.53;;;26.80;18.40;;;;;;2228948;62;20425;-52
2022/03/25 02:24:15;0.00;0.00;0.62;0.00;0.00;0.62;10.13;9.10;;;26.70;18.40;;;;;;2227770;62;20461;-52
2022/03/25 02:27:02;0.00;0.00;0.62;0.00;0.00;0.62;10.90;9.73;;;26.70;18.40;;;;;;2228077;62;20407;-55
2022/03/25 02:29:47;0.00;0.00;0.62;0.00;0.00;0.62;11.47;10.27;;;26.60;18.40;;;;;;2228448;62;20376;-54
2022/03/25 02:32:35;0.00;0.00;0.62;0.00;0.00;0.62;10.97;9.87;;;26.60;18.30;;;;;;2228231;62;20371;-51
2022/03/25 02:35:20;0.00;0.00;0.62;0.00;0.00;0.62;11.67;9.87;;;26.60;18.30;;;;;;2225999;62;20372;-54
2022/03/25 02:38:07;0.00;0.00;0.62;0.00;0.00;0.62;12.33;9.37;;;26.50;18.30;;;;;;2228524;62;21000;-51
2022/03/25 02:40:52;0.00;0.00;0.62;0.00;0.00;0.62;11.60;9.97;;;26.50;18.30;;;;;;2228298;62;20550;-51
2022/03/25 02:43:36;0.00;0.00;0.62;0.00;0.00;0.62;10.97;9.87;;;26.50;18.30;;;;;;2228965;62;20376;-54
2022/03/25 02:46:21;0.00;0.00;0.62;0.00;0.00;0.62;12.33;8.93;;;26.40;18.20;;;;;;2225641;62;20520;-53
2022/03/25 02:49:06;0.00;0.00;0.62;0.00;0.00;0.62;12.23;10.27;;;26.40;18.30;;;;;;2228367;62;21011;-54
2022/03/25 02:51:50;0.00;0.00;0.62;0.00;0.00;0.62;11.37;9.57;;;26.30;18.20;;;;;;2229479;62;20400;-55
2022/03/25 02:54:37;0.00;0.00;0.62;0.00;0.00;0.62;10.77;9.30;;;26.30;18.30;;;;;;2229015;62;20869;-51
2022/03/25 02:57:21;0.00;0.00;0.62;0.00;0.00;0.62;11.47;10.30;;;26.30;18.20;;;;;;2229763;62;20391;-52
2022/03/25 03:00:09;0.00;0.00;0.62;0.00;0.00;0.62;16.83;11.37;;;26.20;18.20;;;;;;2229412;62;20503;-53
2022/03/25 03:02:54;0.00;0.00;0.62;0.00;0.00;0.62;12.63;10.33;;;26.20;18.20;;;;;;2228972;62;20375;-53
2022/03/25 03:05:39;0.00;0.00;0.62;0.00;0.00;0.62;12.03;10.70;;;26.20;18.20;;;;;;2230013;62;20397;-51
2022/03/25 03:08:24;0.00;0.00;0.62;0.00;0.00;0.62;11.20;10.03;;;26.10;18.20;;;;;;2229630;62;20384;-57
2022/03/25 03:11:11;0.00;0.00;0.62;0.00;0.00;0.62;11.37;10.27;;;26.10;18.20;;;;;;2229665;62;20490;-53
2022/03/25 03:13:55;0.00;0.00;0.62;0.00;0.00;0.62;11.00;10.00;;;26.10;18.20;;;;;;2229301;62;20419;-51
2022/03/25 03:16:40;0.00;0.00;0.62;0.00;0.00;0.62;10.90;9.90;;;26.00;18.20;;;;;;2228782;62;20404;-51
2022/03/25 03:19:24;0.00;0.00;0.62;0.00;0.00;0.62;11.17;9.33;;;26.00;18.20;;;;;;2226089;62;20521;-50
2022/03/25 03:22:09;0.00;0.00;0.62;0.00;0.00;0.62;11.43;9.50;;;26.00;18.20;;;;;;2228981;62;20396;-53
2022/03/25 03:24:53;0.00;0.00;0.62;0.00;0.00;0.62;11.50;10.30;;;25.90;18.20;;;;;;2228657;62;20464;-51
2022/03/25 03:27:39;0.00;0.00;0.62;0.00;0.00;0.62;11.60;10.40;;;25.90;18.80;;;;;;2229314;62;20893;-51
2022/03/25 03:30:24;0.00;0.00;0.62;0.00;0.00;0.62;10.40;9.17;;;25.80;18.20;;;;;;2229295;62;20372;-52
2022/03/25 03:33:09;0.00;0.00;0.62;0.00;0.00;0.62;11.50;10.40;;;25.80;18.20;;;;;;2228745;62;20363;-58
2022/03/25 03:35:53;0.00;0.00;0.62;0.00;0.00;0.62;10.97;9.93;;;25.80;18.20;;;;;;2228036;62;20422;-56
2022/03/25 03:38:38;0.00;0.00;0.62;0.00;0.00;0.62;10.10;8.97;;;25.80;18.20;;;;;;2227227;62;20414;-57
2022/03/25 03:41:22;0.00;0.00;0.62;0.00;0.00;0.62;12.80;10.10;;;25.80;18.30;;;;;;2228151;62;20404;-58
2022/03/25 03:44:08;0.00;0.00;0.62;0.00;0.00;0.62;11.23;10.10;;;25.70;18.20;;;;;;2227595;62;20400;-57
2022/03/25 03:46:53;0.00;0.00;0.62;0.00;0.00;0.62;10.90;9.83;;;25.70;18.20;;;;;;2227599;62;20388;-57
2022/03/25 03:49:38;0.00;0.00;0.62;0.00;0.00;0.62;10.97;9.83;;;25.60;18.10;;;;;;2228326;62;20371;-56
2022/03/25 03:52:23;0.00;0.00;0.62;0.00;0.00;0.62;11.27;9.67;;;25.60;18.10;;;;;;2228075;62;20436;-57
2022/03/25 03:55:10;0.00;0.00;0.62;0.00;0.00;0.62;10.50;9.33;;;25.60;18.10;;;;;;2227763;62;20772;-59
2022/03/25 03:58:13;0.00;0.00;0.62;0.00;0.00;0.62;11.80;9.83;;;25.60;18.10;;;;;;2228093;62;20525;-56
2022/03/25 04:00:59;0.00;0.00;0.62;0.00;0.00;0.62;10.83;9.63;;;25.50;18.10;;;;;;2227570;62;20417;-56
2022/03/25 04:03:43;0.00;0.00;0.62;0.00;0.00;0.62;12.10;9.73;;;25.50;18.10;;;;;;2224834;62;20413;-54
2022/03/25 04:06:28;0.00;0.00;0.62;0.00;0.00;0.62;12.27;10.30;;;25.50;18.10;;;;;;2227541;62;20435;-57
2022/03/25 04:09:12;0.00;0.00;0.62;0.00;0.00;0.62;10.73;9.70;;;25.40;18.00;;;;;;2227706;62;20399;-53
2022/03/25 04:11:57;0.00;0.00;0.62;0.00;0.00;0.62;13.33;10.80;;;25.40;18.00;;;;;;2228330;62;20405;-50
2022/03/25 04:14:41;0.00;0.00;0.62;0.00;0.00;0.62;11.00;9.10;;;25.40;18.00;;;;;;2227885;62;20392;-52
2022/03/25 04:17:27;0.00;0.00;0.62;0.00;0.00;0.62;12.13;10.17;;;25.30;18.00;;;;;;2227511;62;20468;-54
2022/03/25 04:20:14;0.00;0.00;0.62;0.00;0.00;0.62;10.43;9.30;;;25.30;18.10;;;;;;2228075;62;20388;-54
2022/03/25 04:22:58;0.00;0.00;0.62;0.00;0.00;0.62;10.83;9.67;;;25.30;18.10;;;;;;2224452;62;20519;-54
2022/03/25 04:25:43;0.00;0.00;0.62;0.00;0.00;0.62;10.63;9.53;;;25.20;18.00;;;;;;2227947;62;20484;-55
2022/03/25 04:28:29;0.00;0.00;0.62;0.00;0.00;0.62;11.80;10.30;;;25.20;18.00;;;;;;2227463;62;20972;-54
2022/03/25 04:31:13;0.00;0.00;0.62;0.00;0.00;0.62;11.50;10.30;;;25.20;18.00;;;;;;2227600;62;20785;-55
2022/03/25 04:34:00;0.00;0.00;0.62;0.00;0.00;0.62;10.40;9.27;;;25.10;18.10;;;;;;2228319;62;20360;-56
2022/03/25 04:36:44;0.00;0.00;0.62;0.00;0.00;0.62;11.27;10.10;;;25.10;18.10;;;;;;2227955;62;20790;-52
2022/03/25 04:39:29;0.00;0.00;0.62;0.00;0.00;0.62;10.83;9.83;;;25.10;18.10;;;;;;2227350;62;20384;-52
2022/03/25 04:42:13;0.00;0.00;0.62;0.00;0.00;0.62;10.90;9.80;;;25.10;18.10;;;;;;2225017;62;20372;-50
2022/03/25 04:44:57;0.00;0.00;0.62;0.00;0.00;0.62;11.77;9.90;;;25.00;18.00;;;;;;2227390;62;20494;-53
2022/03/25 04:47:43;0.00;0.00;0.62;0.00;0.00;0.62;10.73;9.73;;;25.00;18.10;;;;;;2227612;62;20403;-51
2022/03/25 04:50:30;0.00;0.00;0.62;0.00;0.00;0.62;9.10;8.30;;;25.00;18.10;;;;;;2228095;62;20841;-52
2022/03/25 04:53:14;0.00;0.00;0.62;0.00;0.00;0.62;10.97;9.80;;;24.90;18.00;;;;;;2227952;62;20384;-51
2022/03/25 04:55:59;0.00;0.00;0.62;0.00;0.00;0.62;10.03;8.97;;;24.90;18.00;;;;;;2228052;62;20407;-56
2022/03/25 04:58:43;0.00;0.00;0.62;0.00;0.00;0.62;10.13;9.03;;;24.90;18.00;;;;;;2227711;62;20407;-53
2022/03/25 05:01:28;0.00;0.00;0.62;0.00;0.00;0.62;10.70;9.60;;;24.90;18.10;;;;;;2227741;62;20449;-53
2022/03/25 05:04:13;0.00;0.00;0.62;0.00;0.00;0.62;9.70;8.30;;;24.80;18.00;;;;;;2228093;62;20384;-56
2022/03/25 05:06:59;0.00;0.00;0.62;0.00;0.00;0.62;9.97;9.07;;;24.80;18.00;;;;;;2227324;62;20933;-52
2022/03/25 05:09:44;0.00;0.00;0.62;0.00;0.00;0.62;9.67;8.63;;;24.70;18.00;;;;;;2227953;62;20408;-52
2022/03/25 05:12:30;0.00;0.00;0.62;0.00;0.00;0.62;10.30;9.30;;;24.70;18.00;;;;;;2228296;62;20404;-56
2022/03/25 05:15:14;0.00;0.00;0.62;0.00;0.00;0.62;10.80;8.90;;;24.70;17.90;;;;;;2228192;62;20364;-52
2022/03/25 05:17:59;0.00;0.00;0.62;0.00;0.00;0.62;11.13;8.60;;;24.70;17.90;;;;;;2228038;62;20423;-54
2022/03/25 05:20:43;0.00;0.00;0.62;0.00;0.00;0.62;10.87;9.60;;;24.60;17.80;;;;;;2227831;62;20379;-56
2022/03/25 05:23:29;0.00;0.00;0.62;0.00;0.00;0.62;9.70;8.20;;;24.60;17.90;;;;;;2227624;62;20953;-53
2022/03/25 05:26:14;0.00;0.00;0.62;0.00;0.00;0.62;10.50;8.87;;;24.60;17.90;;;;;;2225122;62;20399;-53
2022/03/25 05:28:58;0.00;0.00;0.62;0.00;0.00;0.62;11.30;9.27;;;24.50;17.80;;;;;;2227695;62;20956;-55
2022/03/25 05:31:43;0.00;0.00;0.62;0.00;0.00;0.62;11.53;9.60;;;24.50;17.80;;;;;;2228062;62;20516;-53
2022/03/25 05:34:28;0.00;0.00;0.62;0.00;0.00;0.62;13.23;9.80;;;24.50;17.80;;;;;;2228386;62;20368;-53
2022/03/25 05:37:13;0.00;0.00;0.62;0.00;0.00;0.62;13.30;9.07;;;24.40;17.80;;;;;;2227553;62;20903;-54
2022/03/25 05:39:59;0.00;0.00;0.62;0.00;0.00;0.62;10.43;9.00;;;24.40;17.80;;;;;;2227997;62;20380;-51
2022/03/25 05:42:43;0.00;0.00;0.62;0.00;0.00;0.62;10.63;8.60;;;24.30;17.70;;;;;;2227851;62;20525;-52
2022/03/25 05:45:27;0.00;0.00;0.62;0.00;0.00;0.62;9.50;8.20;;;24.30;17.80;;;;;;2227250;62;20377;-51
2022/03/25 05:48:12;0.00;0.00;0.62;0.00;0.00;0.62;9.47;8.50;;;24.20;17.70;;;;;;2228185;62;20491;-52
2022/03/25 05:50:57;0.00;0.00;0.62;0.00;0.00;0.62;8.60;7.60;;;24.20;17.70;;;;;;2228352;62;20453;-56
2022/03/25 05:53:43;0.00;0.00;0.62;0.00;0.00;0.62;10.53;8.97;;;24.20;17.80;;;;;;2231458;62;20431;-51
2022/03/25 05:56:29;0.00;0.00;0.62;0.00;0.00;0.62;9.13;8.20;;;24.20;17.80;;;;;;2231752;62;20864;-54
2022/03/25 05:59:13;0.00;0.00;0.62;0.00;0.00;0.62;9.37;8.10;;;24.10;17.80;;;;;;2230798;62;20399;-52
2022/03/25 06:01:58;0.00;0.00;0.62;0.00;0.00;0.62;9.50;8.40;;;24.10;17.80;;;;;;2231791;62;20367;-55
2022/03/25 06:04:42;0.00;0.00;0.62;0.00;0.00;0.62;9.10;7.60;;;24.10;17.80;;;;;;2231166;62;20690;-52
2022/03/25 06:07:34;0.00;0.00;0.62;0.00;0.00;0.62;9.00;8.10;;;24.00;17.80;;;;;;2230773;62;20840;-51
2022/03/25 06:10:18;0.00;0.00;0.62;0.00;0.00;0.62;10.07;8.13;;;24.00;17.80;;;;;;2231884;62;20363;-54
2022/03/25 06:13:04;0.00;0.00;0.62;0.00;0.00;0.62;9.37;8.17;;;24.00;17.90;;;;;;2231131;62;20368;-58
2022/03/25 06:15:49;0.00;0.00;0.62;0.00;0.00;0.62;8.40;7.40;;;24.00;18.00;;;;;;2231371;62;20367;-53
2022/03/25 06:18:34;0.00;0.00;0.62;0.00;0.00;0.62;8.83;7.23;;;23.90;17.90;;;;;;2231736;62;20762;-52
2022/03/25 06:21:20;0.00;0.00;0.62;0.00;0.00;0.62;9.67;7.37;;;23.90;18.00;;;;;;2230876;62;20442;-51
2022/03/25 06:24:05;0.00;0.00;0.62;0.00;0.00;0.62;9.93;8.00;;;23.90;18.00;;;;;;2231563;62;20451;-52
2022/03/25 06:26:52;0.00;0.00;0.62;0.00;0.00;0.62;7.97;7.13;;;23.90;18.00;;;;;;2231393;62;20944;-52
2022/03/25 06:29:38;0.00;0.00;0.62;0.00;0.00;0.62;12.33;7.93;;;23.80;17.90;;;;;;2231587;62;20362;-53
2022/03/25 06:32:23;0.00;0.00;0.62;0.00;0.00;0.62;11.23;7.40;;;23.80;18.00;;;;;;2233751;62;20379;-55
2022/03/25 06:35:07;0.00;0.00;0.62;0.00;0.00;0.62;10.20;8.10;;;23.80;18.00;;;;;;2233279;62;20366;-51
2022/03/25 06:37:53;0.00;0.00;0.62;0.00;0.00;0.62;8.33;7.53;;;23.80;18.10;;;;;;2232230;62;21144;-55
2022/03/25 06:40:38;0.00;0.00;0.62;0.00;0.00;0.62;8.43;7.57;;;23.80;18.10;;;;;;2232259;62;20394;-55
2022/03/25 06:43:22;0.00;0.00;0.62;0.00;0.00;0.62;8.40;6.97;;;23.80;18.10;;;;;;2229293;62;20380;-54
2022/03/25 06:46:09;0.00;0.00;0.62;0.00;0.00;0.62;11.40;7.97;;;23.70;18.10;;;;;;2226167;62;20449;-55
2022/03/25 06:48:55;0.00;0.00;0.62;0.00;0.00;0.62;9.10;8.13;;;23.70;18.10;;;;;;2226207;62;20388;-58
2022/03/25 06:51:40;0.00;0.00;0.62;0.00;0.00;0.62;9.27;7.80;;;23.70;18.20;;;;;;2229536;62;20420;-58
2022/03/25 06:54:26;0.00;0.00;0.62;0.00;0.00;0.62;8.10;7.30;;;23.70;18.20;;;;;;2230594;62;20446;-57
2022/03/25 06:57:12;0.00;0.00;0.62;0.00;0.00;0.62;9.47;7.10;;;23.70;18.20;;;;;;2229752;62;20368;-49
2022/03/25 06:59:58;0.00;0.00;0.62;0.00;0.00;0.62;8.23;7.30;;;23.70;18.20;;;;;;2229634;62;20367;-54
2022/03/25 07:02:44;0.00;0.00;0.62;0.00;0.00;0.62;11.87;7.83;;;23.70;18.30;;;;;;2230066;62;20387;-53
2022/03/25 07:05:30;0.00;0.00;0.62;0.00;0.00;0.62;7.90;7.10;;;23.70;18.30;;;;;;2229518;62;20407;-52
2022/03/25 07:08:16;0.00;0.00;0.62;0.00;0.00;0.62;7.60;6.67;;;23.70;18.30;;;;;;2230071;62;20448;-52
2022/03/25 07:11:02;0.00;0.00;0.62;0.00;0.00;0.62;10.00;8.40;;;23.70;18.30;;;;;;2230615;62;20845;-53
2022/03/25 07:13:48;0.00;0.00;0.62;0.00;0.00;0.62;9.30;7.90;;;23.60;18.30;;;;;;2229981;62;20468;-56
2022/03/25 07:16:32;0.00;0.00;0.62;0.00;0.00;0.62;10.53;8.80;;;23.60;18.30;;;;;;2230113;62;20423;-50
2022/03/25 07:19:18;0.00;0.00;0.62;0.00;0.00;0.62;8.20;7.33;;;23.60;18.30;;;;;;2229183;62;20384;-53
2022/03/25 07:22:04;0.00;0.00;0.62;0.00;0.00;0.62;9.43;7.13;;;23.60;18.80;;;;;;2229072;62;20376;-54
2022/03/25 07:24:48;0.00;0.00;0.62;0.00;0.00;0.62;12.67;8.37;;;23.60;18.30;;;;;;2229660;62;20416;-54
2022/03/25 07:27:33;0.00;0.00;0.62;0.00;0.00;0.62;9.73;7.57;;;23.60;18.30;;;;;;2225777;62;20395;-60
2022/03/25 07:30:18;0.00;0.00;0.62;0.00;0.00;0.62;10.63;9.00;;;23.60;18.30;;;;;;2229123;62;20404;-55
2022/03/25 07:33:03;0.00;0.00;0.62;0.00;0.00;0.62;14.23;7.90;;;23.60;18.30;;;;;;2229761;62;20448;-51
2022/03/25 07:35:49;0.00;0.00;0.62;0.00;0.00;0.62;9.37;7.30;;;23.60;18.30;;;;;;2229224;62;20411;-53
2022/03/25 07:38:33;0.00;0.00;0.62;0.00;0.00;0.62;12.23;9.13;;;23.60;18.30;;;;;;2229568;62;20940;-54
2022/03/25 07:41:19;0.00;0.00;0.62;0.00;0.00;0.62;8.83;7.93;;;23.60;18.30;;;;;;2229151;62;20432;-54
2022/03/25 07:44:04;0.00;0.00;0.62;0.00;0.00;0.62;11.50;9.03;;;23.60;18.30;;;;;;2228346;62;20444;-52
2022/03/25 07:46:49;0.00;0.00;0.62;0.00;0.00;0.62;9.00;8.10;;;23.60;18.30;;;;;;2229429;62;20368;-53
2022/03/25 07:49:35;0.00;0.00;0.62;0.00;0.00;0.62;9.77;8.70;;;23.60;18.30;;;;;;2229229;62;20424;-55
2022/03/25 07:52:22;0.00;0.00;0.62;0.00;0.00;0.62;10.17;7.23;;;23.60;18.30;;;;;;2230382;62;20472;-52
2022/03/25 07:55:09;0.00;0.00;0.62;0.00;0.00;0.62;9.77;7.60;;;23.60;18.30;;;;;;2230759;62;20364;-55
2022/03/25 07:57:54;0.00;0.00;0.62;0.00;0.00;0.62;8.30;7.50;;;23.60;18.40;;;;;;2228678;62;20421;-56
2022/03/25 08:00:39;0.00;0.00;0.62;0.00;0.00;0.62;7.50;6.80;;;23.60;18.40;;;;;;2229352;62;20364;-55
2022/03/25 08:03:23;0.00;0.00;0.62;0.00;0.00;0.62;7.47;6.53;;;23.60;18.50;;;;;;2228275;62;20368;-55
2022/03/25 08:06:11;0.00;0.00;0.62;0.00;0.00;0.62;8.97;7.70;;;23.60;18.50;;;;;;2229387;62;20864;-52
2022/03/25 08:08:59;0.00;0.00;0.62;0.00;0.00;0.62;6.70;6.00;;;23.60;18.60;;;;;;2229588;62;20798;-54
2022/03/25 08:11:46;0.00;0.00;0.62;0.00;0.00;0.62;8.50;6.30;;;23.60;18.60;;;;;;2229427;62;20384;-52
2022/03/25 08:14:31;0.00;0.00;0.62;0.00;0.00;0.62;8.00;6.60;;;23.60;18.70;;;;;;2229305;62;20388;-53
2022/03/25 08:17:17;0.00;0.00;0.62;0.00;0.00;0.62;7.93;6.63;;;23.70;18.70;;;;;;2229354;62;20425;-54
2022/03/25 08:20:02;0.00;0.00;0.62;0.00;0.00;0.62;7.30;6.43;;;23.70;18.80;;;;;;2228713;62;20375;-59
2022/03/25 08:22:46;0.00;0.00;0.62;0.00;0.00;0.62;6.53;5.80;;;23.70;18.80;;;;;;2229800;62;20363;-49
2022/03/25 08:28:37;0.00;0.00;0.62;0.00;0.00;0.62;5.50;5.00;;;23.70;18.80;;;;;;2229062;62;20429;-53
2022/03/25 08:31:22;0.00;0.00;0.62;0.00;0.00;0.62;6.10;5.50;;;23.70;18.80;;;;;;2229633;62;20364;-52
2022/03/25 08:34:08;0.00;0.00;0.62;0.00;0.00;0.62;6.90;5.30;;;23.70;18.80;;;;;;2229053;62;20460;-58
2022/03/25 08:36:52;0.00;0.00;0.62;0.00;0.00;0.62;5.40;4.90;;;23.80;18.90;;;;;;2229087;62;20400;-53
2022/03/25 08:39:37;0.00;0.00;0.62;0.00;0.00;0.62;6.00;5.40;;;23.80;18.90;;;;;;2229831;62;20380;-56
2022/03/25 08:42:23;0.00;0.00;0.62;0.00;0.00;0.62;5.47;4.90;;;23.80;18.90;;;;;;2229203;62;20420;-52
2022/03/25 08:45:08;0.00;0.00;0.62;0.00;0.00;0.62;6.00;4.70;;;23.80;18.90;;;;;;2229964;62;20448;-53
2022/03/25 08:47:53;0.00;0.00;0.62;0.00;0.00;0.62;5.67;4.90;;;23.80;18.90;;;;;;2228656;62;20399;-56
2022/03/25 08:50:38;0.00;0.00;0.62;0.00;0.00;0.62;4.87;4.37;;;23.90;19.00;;;;;;2229193;62;20893;-54
2022/03/25 08:53:23;0.00;0.00;0.62;0.00;0.00;0.62;5.33;4.83;;;23.80;18.90;;;;;;2229718;62;20607;-55
2022/03/25 08:56:07;0.00;0.00;0.62;0.00;0.00;0.62;5.80;5.13;;;23.90;19.00;;;;;;2229396;62;20432;-55
2022/03/25 08:58:54;0.00;0.00;0.62;0.00;0.00;0.62;6.13;5.53;;;23.90;19.00;;;;;;2229386;62;20436;-58
2022/03/25 09:01:39;0.00;0.00;0.62;0.00;0.00;0.62;9.93;4.90;;;23.90;19.00;;;;;;2229337;62;20509;-57
2022/03/25 09:04:24;0.00;0.00;0.62;0.00;0.00;0.62;4.70;4.30;;;23.90;19.00;;;;;;2228757;62;20359;-56
2022/03/25 09:07:09;0.00;0.00;0.62;0.00;0.00;0.62;4.83;4.30;;;24.00;19.10;;;;;;2228911;62;20368;-59
2022/03/25 09:09:53;0.00;0.00;0.62;0.00;0.00;0.62;5.20;4.70;;;24.00;19.10;;;;;;2228757;62;20900;-59
2022/03/25 09:12:38;0.00;0.00;0.62;0.00;0.00;0.62;4.97;4.47;;;24.00;19.10;;;;;;2228556;62;20834;-56
2022/03/25 09:15:23;0.00;0.00;0.62;0.00;0.00;0.62;5.13;4.67;;;24.00;19.10;;;;;;2228662;62;20361;-57
2022/03/25 09:18:08;0.00;0.00;0.62;0.00;0.00;0.62;4.70;3.90;;;24.00;19.10;;;;;;2227968;62;20531;-59
2022/03/25 09:20:53;0.00;0.00;0.62;0.00;0.00;0.62;4.77;4.30;;;24.10;19.30;;;;;;2227020;62;20425;-58
2022/03/25 09:23:38;0.00;0.00;0.62;0.00;0.00;0.62;5.23;4.30;;;24.10;19.20;;;;;;2228142;62;20485;-60
2022/03/25 09:26:25;0.00;0.00;0.62;0.00;0.00;0.62;5.40;4.47;;;24.10;19.20;;;;;;2227220;62;20428;-59
2022/03/25 09:29:09;0.00;0.00;0.62;0.00;0.00;0.62;3.90;3.50;;;24.10;19.30;;;;;;2227627;62;21000;-58
2022/03/25 09:31:55;0.00;0.00;0.62;0.00;0.00;0.62;4.10;3.70;;;24.10;19.20;;;;;;2227571;62;20423;-59
2022/03/25 09:37:46;0.00;0.00;0.62;0.00;0.00;0.62;4.43;3.90;;;24.20;19.30;;;;;;2227810;62;20477;-59
2022/03/25 09:40:31;0.00;0.00;0.62;0.00;0.00;0.62;5.60;4.23;;;24.20;19.40;;;;;;2227589;62;20380;-59
2022/03/25 09:43:18;0.00;0.00;0.62;0.00;0.00;0.62;4.37;3.97;;;24.20;19.40;;;;;;2227513;62;20448;-58
2022/03/25 09:46:03;0.00;0.00;0.62;0.00;0.00;0.62;4.43;4.03;;;24.30;19.40;;;;;;2228112;62;20727;-60
2022/03/25 09:48:49;0.00;0.00;0.62;0.00;0.00;0.62;3.63;3.30;;;24.30;19.40;;;;;;2223847;62;20472;-59
2022/03/25 09:51:34;0.00;0.00;0.62;0.00;0.00;0.62;4.27;3.87;;;24.30;19.40;;;;;;2227985;62;20424;-60
2022/03/25 09:54:20;0.00;0.00;0.62;0.00;0.00;0.62;4.03;3.63;;;24.30;19.40;;;;;;2227439;62;20395;-59
2022/03/25 09:57:04;0.00;0.00;0.62;0.00;0.00;0.62;3.83;3.20;;;24.30;19.50;;;;;;2227013;62;20518;-56
2022/03/25 09:59:49;0.00;0.00;0.62;0.00;0.00;0.62;3.97;3.43;;;24.40;19.50;;;;;;2227789;62;20432;-58
2022/03/25 10:02:33;0.00;0.00;0.62;0.00;0.00;0.62;3.53;3.23;;;24.40;19.60;;;;;;2227560;62;20396;-58
2022/03/25 10:05:21;0.00;0.00;0.62;0.00;0.00;0.62;4.07;3.70;;;24.40;19.60;;;;;;2227335;62;20851;-56
2022/03/25 10:08:06;0.00;0.00;0.62;0.00;0.00;0.62;3.97;3.10;;;24.50;19.60;;;;;;2227601;62;20932;-60
2022/03/25 10:10:50;0.00;0.00;0.62;0.00;0.00;0.62;4.30;3.57;;;24.50;19.60;;;;;;2227158;62;20372;-59
2022/03/25 10:13:35;0.00;0.00;0.62;0.00;0.00;0.62;3.43;3.13;;;24.50;19.60;;;;;;2227866;62;20372;-58
2022/03/25 10:16:28;0.00;0.00;0.62;0.00;0.00;0.62;4.33;3.33;;;24.60;19.70;;;;;;2227448;62;20416;-61
2022/03/25 10:19:15;0.00;0.00;0.62;0.00;0.00;0.62;3.60;3.27;;;24.60;19.70;;;;;;2227040;62;20391;-61
2022/03/25 10:22:03;0.00;0.00;0.62;0.00;0.00;0.62;3.97;3.57;;;24.60;19.70;;;;;;2227955;62;20464;-59
2022/03/25 10:24:52;0.00;0.00;0.62;0.00;0.00;0.62;3.10;2.70;;;24.60;19.70;;;;;;2227494;62;20477;-58
2022/03/25 10:27:37;0.00;0.00;0.62;0.00;0.00;0.62;4.20;3.27;;;24.70;19.80;;;;;;2227275;62;20856;-60
2022/03/25 10:30:35;0.00;0.00;0.62;0.00;0.00;0.62;3.50;3.20;;;24.70;19.80;;;;;;2227914;62;20371;-60
2022/03/25 10:33:29;0.00;0.00;0.62;0.00;0.00;0.62;3.80;3.10;;;24.70;19.80;;;;;;2227183;62;20420;-57
2022/03/25 10:36:15;0.00;0.00;0.62;0.00;0.00;0.62;3.97;3.30;;;24.80;19.90;;;;;;2227937;62;20364;-60
2022/03/25 10:39:11;0.00;0.00;0.62;0.00;0.00;0.62;4.13;3.20;;;24.80;19.90;;;;;;2227138;62;20403;-59
2022/03/25 10:41:59;0.00;0.00;0.62;0.00;0.00;0.62;3.13;2.83;;;24.80;19.90;;;;;;2227158;62;20888;-60
2022/03/25 10:44:43;0.00;0.00;0.62;0.00;0.00;0.62;3.47;2.90;;;24.80;19.90;;;;;;2228037;62;20400;-57
2022/03/25 10:47:28;0.00;0.00;0.62;0.00;0.00;0.62;3.20;2.90;;;24.90;20.00;;;;;;2226778;62;20428;-58
2022/03/25 10:50:13;0.00;0.00;0.62;0.00;0.00;0.62;3.27;2.87;;;24.90;20.00;;;;;;2227432;62;20376;-56
2022/03/25 10:53:11;0.00;0.00;0.62;0.00;0.00;0.62;3.80;2.80;;;25.00;20.00;;;;;;2227940;62;20376;-59
2022/03/25 10:55:59;0.00;0.00;0.62;0.00;0.00;0.62;3.50;3.17;;;25.00;20.00;;;;;;2227421;62;20416;-59